Time;durP1;ratioP1;P1;durP2;ratioP2;P2;SDS_P1;SDS_P2;PMS_P1;PMS_P2;Temp;Humidity;BMP_temperature;BMP_pressure;BME280_temperature;BME280_humidity;BME280_pressure;Samples;Min_cycle;Max_cycle;Signal;HPM_P1;HPM_P2
2023/05/09 00:01:11;;;;;;;6.55;2.00;;;;;;;14.44;100.00;100594.50;5000959;28;20037;-73
2023/05/09 00:03:37;;;;;;;7.35;1.83;;;;;;;14.44;100.00;100588.09;5022612;28;20382;-73
2023/05/09 00:06:03;;;;;;;5.18;2.30;;;;;;;14.42;100.00;100587.59;5016975;28;20042;-73
2023/05/09 00:08:28;;;;;;;6.95;2.10;;;;;;;14.44;100.00;100585.31;5017188;28;20033;-73
2023/05/09 00:10:54;;;;;;;6.05;1.80;;;;;;;14.42;100.00;100574.44;5016747;28;20026;-73
2023/05/09 00:13:19;;;;;;;3.90;1.70;;;;;;;14.43;100.00;100573.31;5033255;28;20025;-73
2023/05/09 00:15:45;;;;;;;4.82;2.10;;;;;;;14.40;100.00;100579.53;5017755;28;20030;-73
2023/05/09 00:18:11;;;;;;;3.33;1.58;;;;;;;14.40;100.00;100565.56;5017631;28;20084;-73
2023/05/09 00:20:39;;;;;;;4.90;2.20;;;;;;;14.40;100.00;100562.78;5016656;28;20104;-73
2023/05/09 00:23:05;;;;;;;4.03;1.90;;;;;;;14.40;100.00;100553.53;5033349;28;20037;-74
2023/05/09 00:25:30;;;;;;;4.07;1.80;;;;;;;14.40;100.00;100553.53;5017753;28;20038;-73
2023/05/09 00:27:56;;;;;;;3.92;1.90;;;;;;;14.42;100.00;100551.25;5018033;28;20030;-73
2023/05/09 00:30:21;;;;;;;3.60;1.60;;;;;;;14.39;100.00;100547.13;5032881;28;20037;-73
2023/05/09 00:32:47;;;;;;;4.75;1.90;;;;;;;14.37;100.00;100534.63;5016266;28;20030;-73
2023/05/09 00:35:12;;;;;;;3.20;1.50;;;;;;;14.37;100.00;100531.84;4998616;28;20030;-73
2023/05/09 00:37:38;;;;;;;6.72;2.30;;;;;;;14.30;100.00;100524.72;5013191;28;20081;-73
2023/05/09 00:40:05;;;;;;;3.53;1.40;;;;;;;14.34;100.00;100522.13;5019858;28;20080;-73
2023/05/09 00:42:30;;;;;;;4.45;1.75;;;;;;;14.36;100.00;100519.84;4999963;28;20040;-73
2023/05/09 00:44:56;;;;;;;3.25;1.70;;;;;;;14.31;100.00;100515.19;5016506;28;20034;-73
2023/05/09 00:47:22;;;;;;;4.85;1.85;;;;;;;14.30;100.00;100515.53;5015653;28;20026;-73
2023/05/09 00:49:48;;;;;;;4.93;1.60;;;;;;;14.33;100.00;100514.06;5016273;28;20092;-73
2023/05/09 00:52:13;;;;;;;2.42;1.25;;;;;;;14.29;100.00;100502.69;4999825;28;20026;-73
2023/05/09 00:54:39;;;;;;;3.05;1.48;;;;;;;14.29;100.00;100497.94;4996998;28;20038;-73
2023/05/09 00:57:05;;;;;;;2.40;1.40;;;;;;;14.30;100.00;100510.75;4979734;28;20034;-73
2023/05/09 00:59:30;;;;;;;4.15;1.60;;;;;;;14.30;100.00;100501.56;5013386;28;20117;-73
2023/05/09 01:01:56;;;;;;;2.55;1.40;;;;;;;14.32;100.00;100490.91;4999938;28;20045;-73
2023/05/09 01:04:21;;;;;;;3.92;1.80;;;;;;;14.30;100.00;100493.19;5048842;28;20026;-73
2023/05/09 01:07:05;;;;;;;3.97;2.00;;;;;;;14.30;100.00;100488.41;5016218;28;20030;-73
2023/05/09 01:09:52;;;;;;;5.10;1.90;;;;;;;14.29;100.00;100483.13;5000317;28;20475;-73
2023/05/09 01:12:23;;;;;;;5.78;1.67;;;;;;;14.27;100.00;100482.66;4996786;28;20045;-73
2023/05/09 01:14:53;;;;;;;2.45;1.40;;;;;;;14.28;100.00;100476.72;5032420;28;20030;-73
2023/05/09 01:17:47;;;;;;;2.97;1.40;;;;;;;14.29;100.00;100474.75;5035787;28;20061;-73
2023/05/09 01:20:38;;;;;;;3.85;1.75;;;;;;;14.27;100.00;100468.69;5039016;28;20026;-73
2023/05/09 01:23:42;;;;;;;2.95;1.63;;;;;;;14.25;100.00;100465.38;5025440;28;20034;-73
2023/05/09 01:26:32;;;;;;;2.03;1.48;;;;;;;14.27;100.00;100463.09;5008986;28;20029;-73
2023/05/09 01:29:46;;;;;;;4.03;1.40;;;;;;;14.29;100.00;100458.00;5016725;28;20061;-73
2023/05/09 01:32:14;;;;;;;4.13;1.65;;;;;;;14.26;100.00;100453.91;4973221;28;20084;-73
2023/05/09 01:34:40;;;;;;;3.10;1.50;;;;;;;14.27;100.00;100457.50;4983305;28;20080;-73
2023/05/09 01:37:05;;;;;;;5.50;1.83;;;;;;;14.27;100.00;100455.53;4999246;28;20062;-73
2023/05/09 01:39:32;;;;;;;2.63;1.30;;;;;;;14.25;100.00;100451.41;4990645;28;20522;-73
2023/05/09 01:41:58;;;;;;;3.20;1.42;;;;;;;14.26;100.00;100442.72;4995030;28;20026;-73
2023/05/09 01:44:23;;;;;;;2.85;1.52;;;;;;;14.23;100.00;100443.34;5048666;28;20033;-73
2023/05/09 01:46:49;;;;;;;3.25;1.58;;;;;;;14.24;100.00;100445.00;4982293;28;20029;-73
2023/05/09 01:49:15;;;;;;;2.65;1.50;;;;;;;14.26;100.00;100444.66;5015114;28;20089;-73
2023/05/09 01:51:40;;;;;;;2.83;1.38;;;;;;;14.24;100.00;100439.41;5015193;28;20036;-73
2023/05/09 01:54:06;;;;;;;2.65;1.40;;;;;;;14.26;100.00;100442.72;4982808;28;20034;-73
2023/05/09 01:56:31;;;;;;;3.05;1.70;;;;;;;14.25;100.00;100435.47;4998687;28;20049;-73
2023/05/09 01:58:57;;;;;;;3.63;1.58;;;;;;;14.25;100.00;100435.47;5015239;28;20029;-73
2023/05/09 02:01:22;;;;;;;2.47;1.60;;;;;;;14.24;100.00;100430.22;4998178;28;20053;-73
2023/05/09 02:03:51;;;;;;;2.58;1.27;;;;;;;14.23;100.00;100425.75;5016149;28;20026;-73
2023/05/09 02:06:17;;;;;;;1.90;1.38;;;;;;;14.22;100.00;100424.94;4999198;28;20125;-73
2023/05/09 02:08:43;;;;;;;3.13;1.40;;;;;;;14.22;100.00;100418.53;5000775;28;20065;-73
2023/05/09 02:11:08;;;;;;;2.92;1.40;;;;;;;14.26;100.00;100425.97;5019083;28;20026;-73
2023/05/09 02:13:34;;;;;;;2.42;1.27;;;;;;;14.22;100.00;100416.56;5002815;28;20057;-73
2023/05/09 02:15:59;;;;;;;1.55;1.17;;;;;;;14.24;100.00;100416.25;5002651;28;20042;-73
2023/05/09 02:18:26;;;;;;;2.10;1.40;;;;;;;14.23;100.00;100409.00;5018982;28;20620;-73
2023/05/09 02:20:51;;;;;;;2.90;1.30;;;;;;;14.22;100.00;100407.38;5019144;28;20037;-73
2023/05/09 02:23:17;;;;;;;1.95;1.00;;;;;;;14.21;100.00;100408.53;5002492;28;20029;-73
2023/05/09 02:25:42;;;;;;;2.05;1.20;;;;;;;14.19;100.00;100397.66;5018846;28;20036;-73
2023/05/09 02:28:09;;;;;;;1.95;1.20;;;;;;;14.20;100.00;100402.09;5002620;28;20405;-73
2023/05/09 02:30:38;;;;;;;1.45;1.20;;;;;;;14.24;100.00;100411.50;5018655;28;20026;-73
2023/05/09 02:33:05;;;;;;;2.45;1.45;;;;;;;14.23;100.00;100403.41;5018502;28;20087;-73
2023/05/09 02:35:30;;;;;;;1.73;1.20;;;;;;;14.20;100.00;100396.50;5018787;28;20060;-73
2023/05/09 02:37:56;;;;;;;1.42;1.27;;;;;;;14.23;100.00;100403.41;5002485;28;20702;-73
2023/05/09 02:40:22;;;;;;;1.67;1.20;;;;;;;14.22;100.00;100399.81;5005525;28;20037;-73
2023/05/09 02:42:47;;;;;;;1.20;0.90;;;;;;;14.20;100.00;100399.28;5002577;28;20474;-73
2023/05/09 02:45:13;;;;;;;1.17;1.00;;;;;;;14.21;100.00;100403.75;5019663;28;20474;-73
2023/05/09 02:47:38;;;;;;;1.67;1.05;;;;;;;14.23;100.00;100398.66;5034598;28;20026;-73
2023/05/09 02:50:05;;;;;;;1.73;1.00;;;;;;;14.22;100.00;100397.00;5018537;28;20619;-73
2023/05/09 02:52:30;;;;;;;1.27;0.90;;;;;;;14.23;100.00;100389.44;5018401;28;20065;-73
2023/05/09 02:54:56;;;;;;;2.90;0.95;;;;;;;14.23;100.00;100397.84;5019889;28;20045;-73
2023/05/09 02:57:21;;;;;;;2.65;1.00;;;;;;;14.22;100.00;100390.59;5015245;28;20034;-73
2023/05/09 02:59:47;;;;;;;1.00;0.70;;;;;;;14.21;100.00;100389.78;5016092;28;20034;-73
2023/05/09 03:02:12;;;;;;;2.50;0.70;;;;;;;14.21;100.00;100377.81;5001796;28;20034;-73
2023/05/09 03:04:38;;;;;;;0.93;0.82;;;;;;;14.22;100.00;100382.22;5001808;28;21186;-73
2023/05/09 03:07:03;;;;;;;1.02;0.80;;;;;;;14.21;100.00;100381.41;5018390;28;20482;-72
2023/05/09 03:09:29;;;;;;;1.13;0.68;;;;;;;14.20;100.00;100378.94;5018331;28;20052;-73
2023/05/09 03:11:55;;;;;;;1.48;0.80;;;;;;;14.19;100.00;100374.50;5017859;28;20033;-73
2023/05/09 03:14:21;;;;;;;1.08;0.68;;;;;;;14.21;100.00;100377.81;5018036;28;20049;-73
2023/05/09 03:16:46;;;;;;;0.80;0.60;;;;;;;14.21;100.00;100377.81;5019089;28;20030;-73
2023/05/09 03:19:12;;;;;;;1.70;0.70;;;;;;;14.21;100.00;100373.03;5018601;28;20030;-73
2023/05/09 03:21:37;;;;;;;0.80;0.50;;;;;;;14.18;100.00;100382.06;5050461;28;20030;-73
2023/05/09 03:24:03;;;;;;;0.90;0.60;;;;;;;14.18;100.00;100373.69;5034238;28;20038;-73
2023/05/09 03:26:29;;;;;;;0.90;0.60;;;;;;;14.19;100.00;100375.31;5017763;28;20700;-73
2023/05/09 03:28:54;;;;;;;1.25;0.70;;;;;;;14.18;100.00;100365.31;5034360;28;20029;-73
2023/05/09 03:31:20;;;;;;;1.17;0.80;;;;;;;14.20;100.00;100373.34;5001310;28;20502;-73
2023/05/09 03:33:45;;;;;;;3.35;0.75;;;;;;;14.20;100.00;100367.75;5018742;28;20069;-73
2023/05/09 03:36:11;;;;;;;0.85;0.70;;;;;;;14.17;100.00;100360.03;5017616;28;20038;-73
2023/05/09 03:38:36;;;;;;;0.60;0.60;;;;;;;14.19;100.00;100357.75;5013640;28;20041;-73
2023/05/09 03:41:02;;;;;;;0.88;0.70;;;;;;;14.19;100.00;100352.97;5022011;28;20033;-73
2023/05/09 03:43:28;;;;;;;2.70;0.55;;;;;;;14.18;100.00;100350.47;5017473;28;20022;-73
2023/05/09 03:45:53;;;;;;;1.58;0.70;;;;;;;14.19;100.00;100352.16;5017083;28;20041;-73
2023/05/09 03:48:19;;;;;;;1.77;0.68;;;;;;;14.18;100.00;100356.06;5017004;28;20076;-73
2023/05/09 03:50:44;;;;;;;0.77;0.55;;;;;;;14.18;100.00;100344.91;5017200;28;20030;-72
2023/05/09 03:53:10;;;;;;;1.55;0.50;;;;;;;14.18;100.00;100347.69;5033695;28;20471;-72
2023/05/09 03:55:35;;;;;;;0.75;0.50;;;;;;;14.18;100.00;100351.34;4981436;28;20077;-73
2023/05/09 03:58:02;;;;;;;0.57;0.40;;;;;;;14.17;100.00;100343.25;5000848;28;20030;-73
2023/05/09 04:00:27;;;;;;;0.50;0.50;;;;;;;14.19;100.00;100346.56;4997695;28;20026;-73
2023/05/09 04:02:53;;;;;;;1.02;0.40;;;;;;;14.18;100.00;100350.47;5000587;28;20502;-73
2023/05/09 04:05:18;;;;;;;1.50;0.50;;;;;;;14.19;100.00;100350.19;4997170;28;20074;-73
2023/05/09 04:07:44;;;;;;;1.23;0.50;;;;;;;14.18;100.00;100356.06;5028264;28;20514;-72
2023/05/09 04:10:10;;;;;;;0.50;0.50;;;;;;;14.18;100.00;100347.69;4997492;28;20081;-73
2023/05/09 04:12:35;;;;;;;1.58;0.55;;;;;;;14.19;100.00;100343.78;4995581;28;20041;-73
2023/05/09 04:15:01;;;;;;;0.63;0.40;;;;;;;14.18;100.00;100339.31;5033473;28;20482;-73
2023/05/09 04:17:26;;;;;;;1.35;0.50;;;;;;;14.19;100.00;100346.56;5050432;28;20047;-73
2023/05/09 04:19:52;;;;;;;1.13;0.40;;;;;;;14.19;100.00;100366.13;5020962;28;20038;-74
2023/05/09 04:22:17;;;;;;;0.50;0.40;;;;;;;14.18;100.00;100356.91;5022058;28;20038;-73
2023/05/09 04:24:43;;;;;;;0.52;0.30;;;;;;;14.19;100.00;100357.75;5001328;28;20030;-73
2023/05/09 04:27:08;;;;;;;1.00;0.40;;;;;;;14.14;100.00;100355.91;5019126;28;20030;-73
2023/05/09 04:29:34;;;;;;;0.63;0.50;;;;;;;14.12;100.00;100357.38;5022026;28;20088;-73
2023/05/09 04:32:00;;;;;;;2.45;0.40;;;;;;;14.10;100.00;100346.53;5036887;28;20033;-72
2023/05/09 04:34:26;;;;;;;1.02;0.40;;;;;;;14.08;100.00;100346.03;5001070;28;20030;-73
2023/05/09 04:36:52;;;;;;;0.73;0.30;;;;;;;14.02;100.00;100348.13;5015608;28;20088;-72
2023/05/09 04:39:18;;;;;;;1.55;0.20;;;;;;;14.02;100.00;100348.13;5009543;28;20065;-73
2023/05/09 04:41:46;;;;;;;0.85;0.30;;;;;;;14.00;100.00;100358.78;5040266;28;20027;-73
2023/05/09 04:44:15;;;;;;;1.33;0.40;;;;;;;13.97;100.00;100351.06;5016288;28;20153;-73
2023/05/09 04:46:41;;;;;;;1.25;0.40;;;;;;;13.96;100.00;100355.00;5015897;28;20456;-73
2023/05/09 04:49:06;;;;;;;0.60;0.40;;;;;;;13.90;100.00;100356.28;5017035;28;20038;-73
2023/05/09 04:51:32;;;;;;;0.40;0.40;;;;;;;13.88;100.00;100358.56;4998323;28;20030;-73
2023/05/09 04:53:57;;;;;;;1.02;0.40;;;;;;;13.84;100.00;100361.16;5017469;28;20104;-73
2023/05/09 04:56:23;;;;;;;0.82;0.40;;;;;;;13.83;100.00;100358.72;4983584;28;20040;-73
2023/05/09 04:58:48;;;;;;;0.50;0.40;;;;;;;13.84;100.00;100351.97;5016069;28;20030;-73
2023/05/09 05:01:15;;;;;;;2.13;0.40;;;;;;;13.82;100.00;100355.09;5017078;28;20058;-73
2023/05/09 05:03:40;;;;;;;1.23;0.45;;;;;;;13.83;100.00;100361.50;5015812;28;20066;-73
2023/05/09 05:06:06;;;;;;;0.50;0.30;;;;;;;13.83;100.00;100355.91;5032263;28;20054;-73
2023/05/09 05:08:31;;;;;;;1.77;0.50;;;;;;;13.83;100.00;100361.50;5032363;28;20065;-72
2023/05/09 05:10:57;;;;;;;0.30;0.30;;;;;;;13.80;100.00;100349.00;4999638;28;20045;-72
2023/05/09 05:13:22;;;;;;;3.15;0.50;;;;;;;13.80;100.00;100357.38;5015721;28;20037;-73
2023/05/09 05:15:48;;;;;;;0.80;0.50;;;;;;;13.81;100.00;100347.03;5015734;28;20104;-73
2023/05/09 05:18:14;;;;;;;1.58;0.55;;;;;;;13.78;100.00;100345.69;5048726;28;20026;-73
2023/05/09 05:20:40;;;;;;;1.25;0.40;;;;;;;13.77;100.00;100341.28;5015648;28;20087;-73
2023/05/09 05:23:06;;;;;;;1.75;0.60;;;;;;;13.78;100.00;100340.13;5016934;28;20026;-73
2023/05/09 05:25:31;;;;;;;2.53;0.60;;;;;;;13.77;100.00;100334.88;4999367;28;20045;-73
2023/05/09 05:27:57;;;;;;;1.25;0.50;;;;;;;13.75;100.00;100332.38;4999510;28;20026;-73
2023/05/09 05:30:22;;;;;;;3.17;1.10;;;;;;;13.68;100.00;100331.19;5015467;28;20619;-73
2023/05/09 05:32:48;;;;;;;2.78;0.88;;;;;;;13.60;100.00;100330.81;5015267;28;20033;-72
2023/05/09 05:35:13;;;;;;;1.40;0.70;;;;;;;13.59;100.00;100336.72;4999103;28;20080;-73
2023/05/09 05:37:39;;;;;;;3.53;1.13;;;;;;;13.61;100.00;100343.63;5016786;28;20030;-72
2023/05/09 05:40:05;;;;;;;2.60;1.10;;;;;;;13.59;100.00;100343.13;5035530;28;20387;-73
2023/05/09 05:42:31;;;;;;;5.03;1.38;;;;;;;13.57;100.00;100348.22;5016653;28;20040;-73
2023/05/09 05:45:03;;;;;;;4.80;1.10;;;;;;;13.57;100.00;100351.00;5015175;28;20060;-73
2023/05/09 05:47:32;;;;;;;2.55;0.90;;;;;;;13.56;100.00;100346.53;5014685;28;20018;-73
2023/05/09 05:49:58;;;;;;;2.10;1.10;;;;;;;13.55;100.00;100353.28;5015220;28;20042;-73
2023/05/09 05:52:24;;;;;;;3.97;1.13;;;;;;;13.57;100.00;100352.97;5015353;28;20041;-73
2023/05/09 05:54:49;;;;;;;4.03;0.85;;;;;;;13.57;100.00;100362.16;5016819;28;20038;-72
2023/05/09 05:57:14;;;;;;;5.72;1.10;;;;;;;13.58;100.00;100354.59;5015210;28;20034;-73
2023/05/09 05:59:40;;;;;;;3.50;0.98;;;;;;;13.55;100.00;100358.84;5015182;28;20494;-73
2023/05/09 06:02:05;;;;;;;3.85;1.10;;;;;;;13.56;100.00;100356.88;4995576;28;20034;-73
2023/05/09 06:04:31;;;;;;;3.97;1.38;;;;;;;13.53;100.00;100352.75;5011124;28;20030;-73
2023/05/09 06:06:56;;;;;;;3.13;1.20;;;;;;;13.55;100.00;100364.44;5016347;28;20416;-73
2023/05/09 06:09:22;;;;;;;3.45;1.13;;;;;;;13.58;100.00;100361.00;5016359;28;20045;-73
2023/05/09 06:11:47;;;;;;;2.95;1.15;;;;;;;13.56;100.00;100354.91;5048039;28;20045;-72
2023/05/09 06:14:13;;;;;;;3.58;1.15;;;;;;;13.56;100.00;100351.31;5016285;28;20045;-73
2023/05/09 06:16:38;;;;;;;2.85;0.90;;;;;;;13.59;100.00;100351.47;5014938;28;20030;-73
2023/05/09 06:19:04;;;;;;;3.72;1.33;;;;;;;13.59;100.00;100336.72;5015972;28;20084;-73
2023/05/09 06:21:29;;;;;;;6.20;1.40;;;;;;;13.58;100.00;100338.69;5015065;28;20375;-73
2023/05/09 06:23:55;;;;;;;2.60;1.35;;;;;;;13.60;100.00;100330.81;4998744;28;20056;-73
2023/05/09 06:26:21;;;;;;;7.60;1.33;;;;;;;13.62;100.00;100342.50;4995520;28;20038;-73
2023/05/09 06:28:46;;;;;;;3.25;1.38;;;;;;;13.63;100.00;100349.72;5010771;28;20033;-73
2023/05/09 06:31:12;;;;;;;3.30;1.42;;;;;;;13.63;100.00;100341.34;5015031;28;20493;-73
2023/05/09 06:33:37;;;;;;;3.28;1.23;;;;;;;13.67;100.00;100341.53;5014616;28;20146;-73
2023/05/09 06:36:03;;;;;;;4.55;1.40;;;;;;;13.70;100.00;100338.09;5014737;28;20490;-73
2023/05/09 06:38:28;;;;;;;2.88;1.25;;;;;;;13.72;100.00;100337.78;4998312;28;20022;-73
2023/05/09 06:40:54;;;;;;;5.03;1.00;;;;;;;13.74;100.00;100335.50;5015105;28;20030;-72
2023/05/09 06:43:19;;;;;;;4.82;1.27;;;;;;;13.74;100.00;100329.94;5009797;28;20025;-72
2023/05/09 06:45:45;;;;;;;3.53;1.20;;;;;;;13.78;100.00;100331.75;5014992;28;20041;-72
2023/05/09 06:48:11;;;;;;;2.28;1.10;;;;;;;13.81;100.00;100330.28;5015638;28;20034;-73
2023/05/09 06:50:37;;;;;;;4.10;1.10;;;;;;;13.81;100.00;100338.66;5014917;28;20620;-74
2023/05/09 06:53:02;;;;;;;3.33;1.20;;;;;;;13.83;100.00;100339.16;5013627;28;20062;-73
2023/05/09 06:55:28;;;;;;;3.30;1.27;;;;;;;13.83;100.00;100328.00;5009257;28;20039;-73
2023/05/09 06:57:53;;;;;;;2.92;1.00;;;;;;;13.85;100.00;100331.31;5011985;28;20057;-74
2023/05/09 07:00:19;;;;;;;2.03;1.23;;;;;;;13.85;100.00;100336.88;5001758;28;20061;-73
2023/05/09 07:02:45;;;;;;;2.45;1.50;;;;;;;13.83;100.00;100339.16;5017808;28;20565;-73
2023/05/09 07:05:10;;;;;;;1.98;1.13;;;;;;;13.86;100.00;100332.94;5019054;28;20053;-73
2023/05/09 07:07:36;;;;;;;4.25;1.20;;;;;;;13.86;100.00;100330.97;4983635;28;20394;-73
2023/05/09 07:10:03;;;;;;;5.40;1.58;;;;;;;13.86;100.00;100330.97;5019465;28;20029;-73
2023/05/09 07:12:30;;;;;;;5.95;1.77;;;;;;;13.88;100.00;100339.03;5051097;28;20037;-73
2023/05/09 07:14:56;;;;;;;4.53;1.50;;;;;;;13.86;100.00;100338.53;5017915;28;20034;-73
2023/05/09 07:17:23;;;;;;;5.43;1.85;;;;;;;13.88;100.00;100336.25;4969115;28;20029;-73
2023/05/09 07:19:49;;;;;;;4.50;1.40;;;;;;;13.88;100.00;100335.44;4998569;28;20043;-73
2023/05/09 07:22:14;;;;;;;5.13;1.27;;;;;;;13.93;100.00;100333.31;5017551;28;20096;-73
2023/05/09 07:24:40;;;;;;;4.55;1.23;;;;;;;13.95;100.00;100339.38;5018109;28;20036;-73
2023/05/09 07:27:05;;;;;;;3.17;0.98;;;;;;;13.97;100.00;100334.31;5018896;28;20037;-73
2023/05/09 07:29:31;;;;;;;4.15;1.73;;;;;;;14.01;100.00;100332.53;5004899;28;20049;-73
2023/05/09 07:31:56;;;;;;;4.03;1.30;;;;;;;14.03;100.00;100341.41;5022809;28;20033;-73
2023/05/09 07:34:24;;;;;;;2.05;1.30;;;;;;;14.06;100.00;100345.50;5021734;28;20033;-73
2023/05/09 07:36:49;;;;;;;3.55;1.50;;;;;;;14.11;100.00;100338.97;5020926;28;20058;-73
2023/05/09 07:39:15;;;;;;;4.25;1.30;;;;;;;14.13;100.00;100343.09;5030525;28;20030;-73
2023/05/09 07:41:41;;;;;;;5.78;1.65;;;;;;;14.19;100.00;100340.97;5012822;28;20029;-73
2023/05/09 07:44:08;;;;;;;4.38;1.67;;;;;;;14.23;100.00;100341.97;5054557;28;20479;-73
2023/05/09 07:46:36;;;;;;;4.03;2.20;;;;;;;14.27;100.00;100337.41;4986512;28;20022;-73
2023/05/09 07:49:01;;;;;;;3.17;1.42;;;;;;;14.29;100.00;100346.25;5011743;28;20034;-73
2023/05/09 07:51:27;;;;;;;4.40;2.15;;;;;;;14.34;100.00;100343.31;5033281;28;20030;-73
2023/05/09 07:53:54;;;;;;;3.83;1.92;;;;;;;14.36;100.00;100334.63;5017398;28;20056;-73
2023/05/09 07:56:21;;;;;;;7.40;2.47;;;;;;;14.40;100.00;100342.06;5034139;28;20064;-73
2023/05/09 07:58:47;;;;;;;3.13;1.90;;;;;;;14.43;100.00;100341.41;5001201;28;20029;-73
2023/05/09 08:01:12;;;;;;;3.88;2.08;;;;;;;14.46;100.00;100343.53;5018205;28;20030;-73
2023/05/09 08:03:38;;;;;;;5.40;2.22;;;;;;;14.48;100.00;100340.41;4997243;28;20499;-73
2023/05/09 08:06:03;;;;;;;4.32;2.20;;;;;;;14.50;100.00;100341.72;5027714;28;20057;-73
2023/05/09 08:08:29;;;;;;;6.82;2.95;;;;;;;14.51;100.00;100349.00;4984604;28;20025;-73
2023/05/09 08:10:55;;;;;;;7.00;2.50;;;;;;;14.51;100.00;100349.00;5016856;28;20044;-73
2023/05/09 08:13:21;;;;;;;5.95;2.28;;;;;;;14.56;100.00;100347.22;5016766;28;20044;-73
2023/05/09 08:15:47;;;;;;;6.03;2.95;;;;;;;14.53;100.00;100351.47;5016910;28;20030;-73
2023/05/09 08:18:13;;;;;;;5.40;2.83;;;;;;;14.55;100.00;100351.16;4997116;28;20042;-73
2023/05/09 08:20:39;;;;;;;5.85;3.10;;;;;;;14.54;100.00;100353.09;4993698;28;20088;-73
2023/05/09 08:23:04;;;;;;;7.68;2.53;;;;;;;14.58;100.00;100356.91;5016916;28;20505;-73
2023/05/09 08:25:30;;;;;;;5.55;3.35;;;;;;;14.58;100.00;100359.72;5016710;28;20120;-73
2023/05/09 08:27:55;;;;;;;8.75;3.25;;;;;;;14.61;100.00;100363.84;5000227;28;20384;-73
2023/05/09 08:30:21;;;;;;;3.80;2.70;;;;;;;14.63;100.00;100361.53;5017915;28;20097;-73
2023/05/09 08:32:47;;;;;;;6.65;4.20;;;;;;;14.65;100.00;100353.63;4999919;28;20022;-73
2023/05/09 08:35:12;;;;;;;8.57;4.07;;;;;;;14.68;100.00;100355.78;5000276;28;20022;-73
2023/05/09 08:37:37;;;;;;;7.85;2.72;;;;;;;14.71;100.00;100347.59;5016347;28;20502;-73
2023/05/09 08:40:06;;;;;;;6.63;2.88;;;;;;;14.78;100.00;100347.09;4987324;28;20537;-73
2023/05/09 08:42:32;;;;;;;6.25;2.65;;;;;;;14.86;100.00;100340.69;5019784;28;20030;-73
2023/05/09 08:44:58;;;;;;;6.15;2.63;;;;;;;14.92;100.00;100346.94;4999778;28;20060;-73
2023/05/09 08:47:23;;;;;;;10.43;5.03;;;;;;;15.02;100.00;100343.03;5032347;28;20079;-73
2023/05/09 08:49:49;;;;;;;5.25;2.83;;;;;;;15.10;100.00;100342.19;4980699;28;20041;-73
2023/05/09 08:52:14;;;;;;;6.82;3.05;;;;;;;15.18;100.00;100338.56;4996719;28;20467;-73
2023/05/09 08:54:40;;;;;;;8.95;3.58;;;;;;;15.29;100.00;100341.84;5015931;28;20040;-73
2023/05/09 08:57:05;;;;;;;6.03;3.53;;;;;;;15.40;100.00;100338.38;5012920;28;20097;-73
2023/05/09 09:02:06;;;;;;;11.65;4.18;;;;;;;15.65;100.00;100333.91;5153439;22;20056;-76
2023/05/09 09:04:32;;;;;;;7.00;3.90;;;;;;;15.81;100.00;100334.22;5038506;28;20029;-69
2023/05/09 09:06:57;;;;;;;7.18;3.40;;;;;;;15.97;100.00;100330.91;5027446;28;20036;-78
2023/05/09 09:09:23;;;;;;;6.18;3.38;;;;;;;16.13;100.00;100329.19;5005410;28;20461;-78
2023/05/09 09:11:48;;;;;;;7.90;3.55;;;;;;;16.30;100.00;100322.69;5020321;28;20040;-78
2023/05/09 09:14:21;;;;;;;5.20;2.97;;;;;;;16.48;100.00;100334.63;5038848;28;20029;-78
2023/05/09 09:16:47;;;;;;;5.35;2.47;;;;;;;16.66;100.00;100330.56;5022634;28;20040;-78
2023/05/09 09:19:13;;;;;;;5.68;2.72;;;;;;;16.83;100.00;100331.66;4994011;28;20029;-78
2023/05/09 09:21:40;;;;;;;4.88;2.78;;;;;;;16.98;100.00;100331.03;5000395;28;20558;-78
2023/05/09 09:24:06;;;;;;;4.63;2.38;;;;;;;17.10;100.00;100322.66;4983720;28;20026;-78
2023/05/09 09:26:31;;;;;;;5.05;2.30;;;;;;;17.25;100.00;100328.84;5019048;28;20049;-78
2023/05/09 09:28:57;;;;;;;4.35;2.25;;;;;;;17.35;100.00;100318.00;5018691;28;20025;-78
2023/05/09 09:31:27;;;;;;;6.85;2.33;;;;;;;17.48;100.00;100318.06;5018805;28;20037;-78
2023/05/09 09:33:58;;;;;;;5.68;2.33;;;;;;;17.59;100.00;100322.88;5036399;28;20030;-78
2023/05/09 09:36:31;;;;;;;5.60;2.00;;;;;;;17.70;100.00;100320.47;5021186;28;20099;-78
2023/05/09 09:39:00;;;;;;;;;;;;;;;17.81;100.00;100323.69;5001578;28;20489;-77
2023/05/09 09:41:35;;;;;;;4.05;1.73;;;;;;;17.92;100.00;100327.69;5018820;28;19999;-78
2023/05/09 09:44:08;;;;;;;4.03;1.88;;;;;;;18.09;100.00;100341.53;5002762;28;20032;-75
2023/05/09 09:46:47;;;;;;;3.92;1.73;;;;;;;18.27;100.00;100327.25;5004472;28;20092;-75
2023/05/09 09:49:15;;;;;;;4.95;1.58;;;;;;;18.43;100.00;100333.00;5025242;28;20053;-76
2023/05/09 09:51:40;;;;;;;2.40;1.40;;;;;;;18.60;100.00;100341.19;5013981;28;20033;-76
2023/05/09 09:54:07;;;;;;;3.50;1.63;;;;;;;18.81;100.00;100338.28;5014254;28;20107;-76
2023/05/09 09:56:49;;;;;;;4.88;1.60;;;;;;;18.97;100.00;100336.38;5017209;28;20037;-76
2023/05/09 09:59:16;;;;;;;4.68;1.65;;;;;;;19.12;100.00;100331.19;5002873;28;20504;-76
2023/05/09 10:02:02;;;;;;;8.38;1.55;;;;;;;19.29;100.00;100333.72;5025644;28;20405;-76
2023/05/09 10:04:38;;;;;;;6.30;1.90;;;;;;;19.39;100.00;100330.41;4998883;28;20034;-76
2023/05/09 10:07:09;;;;;;;4.60;1.70;;;;;;;19.43;100.00;100331.31;5011777;28;20030;-76
2023/05/09 10:09:36;;;;;;;6.15;1.98;;;;;;;19.50;100.00;100327.88;4979381;28;20034;-76
2023/05/09 10:12:03;;;;;;;2.92;1.50;;;;;;;19.56;100.00;100328.44;4977632;28;20433;-76
2023/05/09 10:14:30;;;;;;;3.75;1.60;;;;;;;19.60;100.00;100326.53;4984842;28;20045;-76
2023/05/09 10:16:56;;;;;;;5.38;1.80;;;;;;;19.66;100.00;100322.31;5014481;28;20037;-76
2023/05/09 10:19:21;;;;;;;2.45;1.10;;;;;;;19.77;100.00;100312.16;4998607;28;20033;-76
2023/05/09 10:21:53;;;;;;;3.80;1.45;;;;;;;19.88;100.00;100317.25;4985788;28;20033;-75
2023/05/09 10:24:41;;;;;;;5.07;1.58;;;;;;;20.01;100.00;100310.38;5002481;28;20085;-75
2023/05/09 10:27:09;;;;;;;5.70;1.60;;;;;;;20.16;100.00;100300.28;5013822;28;20053;-75
2023/05/09 10:29:44;;;;;;;5.57;1.50;;;;;;;20.30;100.00;100300.63;5001833;28;20036;-75
2023/05/09 10:32:24;;;;;;;4.55;1.48;;;;;;;20.47;100.00;100293.78;5002508;28;20038;-75
2023/05/09 10:34:51;;;;;;;4.28;1.48;;;;;;;20.62;100.00;100295.78;5018736;28;20050;-76
2023/05/09 10:37:17;;;;;;;3.30;1.33;;;;;;;20.74;100.00;100292.03;5005313;28;20034;-75
2023/05/09 10:39:43;;;;;;;5.47;1.30;;;;;;;20.87;100.00;100299.19;5023093;28;20033;-76
2023/05/09 10:42:08;;;;;;;2.40;1.02;;;;;;;20.95;100.00;100294.53;5021351;28;20030;-76
2023/05/09 10:44:34;;;;;;;3.22;1.23;;;;;;;21.05;100.00;100288.28;5017213;28;20040;-76
2023/05/09 10:47:00;;;;;;;5.38;1.63;;;;;;;21.19;100.00;100288.56;4988571;28;20033;-77
2023/05/09 10:49:25;;;;;;;3.72;1.33;;;;;;;21.31;100.00;100278.31;5002143;28;20030;-77
2023/05/09 10:51:51;;;;;;;4.03;1.42;;;;;;;21.50;100.00;100275.50;5001704;28;20363;-76
2023/05/09 10:54:27;;;;;;;6.40;1.10;;;;;;;21.71;100.00;100265.81;5021968;28;20030;-76
2023/05/09 10:56:53;;;;;;;1.55;1.10;;;;;;;21.92;100.00;100269.00;4993051;28;20033;-76
2023/05/09 10:59:39;;;;;;;6.70;1.17;;;;;;;22.17;100.00;100279.94;5023345;28;20064;-76
2023/05/09 11:02:05;;;;;;;5.63;1.58;;;;;;;22.43;100.00;100268.69;5023663;28;20053;-76
2023/05/09 11:04:31;;;;;;;4.82;1.40;;;;;;;22.68;100.00;100265.41;5010603;28;20116;-76
2023/05/09 11:06:58;;;;;;;6.00;1.30;;;;;;;22.97;100.00;100263.81;5002757;28;20122;-76
2023/05/09 11:09:37;;;;;;;3.30;1.30;;;;;;;23.29;100.00;100254.88;5029910;28;20044;-78
2023/05/09 11:12:08;;;;;;;3.95;1.00;;;;;;;23.59;100.00;100255.63;4989024;28;20053;-77
2023/05/09 11:14:40;;;;;;;6.43;1.27;;;;;;;23.88;100.00;100243.81;5009236;28;20509;-78
2023/05/09 11:17:12;;;;;;;3.80;0.75;;;;;;;24.17;100.00;100244.84;5017526;28;20038;-78
2023/05/09 11:19:44;;;;;;;2.28;0.75;;;;;;;24.45;100.00;100232.94;5013662;28;20041;-78